Terminal Aerodrome Forecast
Issued by NWS Houston/Galveston TX

Home | Current Version | Previous Version | Text Only | Print | Product List | Glossary On
Versions: 1 2 3 4 5 6 7 8 9 10 11 12 13 14 15 16 17 18 19 20 21 22 23 24 25 26 27 28 29 30 31 32 33 34 35 36 37 38 39 40 41 42 43 44 45 46 47 48 49 50
000
FTUS44 KHGX 250226 AAA
TAFHOU
TAF AMD
KHOU 250226Z 2502/2524 17010KT P6SM VCSH SCT015 BKN025
      TEMPO 2504/2506 BKN015 OVC020
     FM250600 01007KT 6SM -TSRA BR SCT008 OVC015CB
     FM251000 04007KT 6SM -SHRA BR BKN010 OVC018
     FM251400 04008KT 6SM BR VCSH BKN015 OVC020
     FM251800 06007KT 4SM -SHRA BR OVC015
     FM252300 09005KT 4SM BR VCSH OVC008=

USA.gov is the U.S. government's official web portal to all federal, state and local government web resources and services.